sensor_id;sensor_type;location;lat;lon;timestamp;temperature;humidity
11055;DHT22;5580;50.106;8.702;2022-08-01T00:01:45;26.10;91.90
11055;DHT22;5580;50.106;8.702;2022-08-01T00:04:11;26.10;91.90
11055;DHT22;5580;50.106;8.702;2022-08-01T00:06:36;26.10;92.00
11055;DHT22;5580;50.106;8.702;2022-08-01T00:09:02;26.10;92.00
11055;DHT22;5580;50.106;8.702;2022-08-01T00:11:28;26.00;92.10
11055;DHT22;5580;50.106;8.702;2022-08-01T00:13:53;25.90;92.00
11055;DHT22;5580;50.106;8.702;2022-08-01T00:16:19;25.90;92.20
11055;DHT22;5580;50.106;8.702;2022-08-01T00:18:48;25.90;92.30
11055;DHT22;5580;50.106;8.702;2022-08-01T00:21:14;25.90;92.20
11055;DHT22;5580;50.106;8.702;2022-08-01T00:23:40;25.90;92.30
11055;DHT22;5580;50.106;8.702;2022-08-01T00:26:06;25.90;92.40
11055;DHT22;5580;50.106;8.702;2022-08-01T00:28:31;25.90;92.60
11055;DHT22;5580;50.106;8.702;2022-08-01T00:30:57;25.90;92.50
11055;DHT22;5580;50.106;8.702;2022-08-01T00:33:22;25.80;92.70
11055;DHT22;5580;50.106;8.702;2022-08-01T00:35:48;25.80;92.60
11055;DHT22;5580;50.106;8.702;2022-08-01T00:38:13;25.80;92.60
11055;DHT22;5580;50.106;8.702;2022-08-01T00:40:39;25.80;92.60
11055;DHT22;5580;50.106;8.702;2022-08-01T00:43:05;25.70;92.70
11055;DHT22;5580;50.106;8.702;2022-08-01T00:45:32;25.70;92.70
11055;DHT22;5580;50.106;8.702;2022-08-01T00:47:57;25.70;92.80
11055;DHT22;5580;50.106;8.702;2022-08-01T00:50:23;25.70;92.80
11055;DHT22;5580;50.106;8.702;2022-08-01T00:52:49;25.70;92.90
11055;DHT22;5580;50.106;8.702;2022-08-01T00:55:16;25.60;92.90
11055;DHT22;5580;50.106;8.702;2022-08-01T00:57:43;25.60;93.00
11055;DHT22;5580;50.106;8.702;2022-08-01T01:00:10;25.60;93.10
11055;DHT22;5580;50.106;8.702;2022-08-01T01:02:36;25.60;93.40
11055;DHT22;5580;50.106;8.702;2022-08-01T01:05:02;25.50;93.40
11055;DHT22;5580;50.106;8.702;2022-08-01T01:07:30;25.50;93.50
11055;DHT22;5580;50.106;8.702;2022-08-01T01:12:53;25.40;93.50
11055;DHT22;5580;50.106;8.702;2022-08-01T01:15:26;25.40;93.90
11055;DHT22;5580;50.106;8.702;2022-08-01T01:29:32;25.20;94.30
11055;DHT22;5580;50.106;8.702;2022-08-01T01:32:06;25.20;94.20
11055;DHT22;5580;50.106;8.702;2022-08-01T01:34:38;25.20;94.30
11055;DHT22;5580;50.106;8.702;2022-08-01T01:37:09;25.20;94.20
11055;DHT22;5580;50.106;8.702;2022-08-01T01:39:37;25.10;94.50
11055;DHT22;5580;50.106;8.702;2022-08-01T01:42:05;25.10;94.50
11055;DHT22;5580;50.106;8.702;2022-08-01T01:44:32;25.10;94.50
11055;DHT22;5580;50.106;8.702;2022-08-01T01:46:59;25.10;94.50
11055;DHT22;5580;50.106;8.702;2022-08-01T01:49:26;25.10;94.80
11055;DHT22;5580;50.106;8.702;2022-08-01T01:51:55;25.10;94.70
11055;DHT22;5580;50.106;8.702;2022-08-01T01:54:23;25.10;95.10
11055;DHT22;5580;50.106;8.702;2022-08-01T01:56:50;25.10;95.10
11055;DHT22;5580;50.106;8.702;2022-08-01T01:59:29;25.10;95.30
11055;DHT22;5580;50.106;8.702;2022-08-01T02:01:59;25.10;95.20
11055;DHT22;5580;50.106;8.702;2022-08-01T02:04:27;25.00;95.10
11055;DHT22;5580;50.106;8.702;2022-08-01T02:06:53;25.00;95.20
11055;DHT22;5580;50.106;8.702;2022-08-01T02:09:21;24.90;95.10
11055;DHT22;5580;50.106;8.702;2022-08-01T02:11:51;24.90;95.10
11055;DHT22;5580;50.106;8.702;2022-08-01T02:14:18;24.90;95.40
11055;DHT22;5580;50.106;8.702;2022-08-01T02:16:49;24.90;95.30
11055;DHT22;5580;50.106;8.702;2022-08-01T02:19:17;24.80;95.40
11055;DHT22;5580;50.106;8.702;2022-08-01T02:21:57;24.80;95.50
11055;DHT22;5580;50.106;8.702;2022-08-01T02:24:42;24.80;95.70
11055;DHT22;5580;50.106;8.702;2022-08-01T02:27:14;24.80;95.70
11055;DHT22;5580;50.106;8.702;2022-08-01T02:29:43;24.80;96.00
11055;DHT22;5580;50.106;8.702;2022-08-01T02:32:20;24.70;95.90
11055;DHT22;5580;50.106;8.702;2022-08-01T02:34:47;24.70;96.20
11055;DHT22;5580;50.106;8.702;2022-08-01T02:37:15;24.70;96.30
11055;DHT22;5580;50.106;8.702;2022-08-01T02:39:41;24.80;96.20
11055;DHT22;5580;50.106;8.702;2022-08-01T02:42:08;24.80;96.10
11055;DHT22;5580;50.106;8.702;2022-08-01T02:44:37;24.70;96.10
11055;DHT22;5580;50.106;8.702;2022-08-01T02:47:04;24.80;96.10
11055;DHT22;5580;50.106;8.702;2022-08-01T02:49:40;24.70;96.10
11055;DHT22;5580;50.106;8.702;2022-08-01T02:52:09;24.70;96.30
11055;DHT22;5580;50.106;8.702;2022-08-01T02:54:36;24.60;96.30
11055;DHT22;5580;50.106;8.702;2022-08-01T02:57:03;24.60;96.30
11055;DHT22;5580;50.106;8.702;2022-08-01T02:59:30;24.60;96.30
11055;DHT22;5580;50.106;8.702;2022-08-01T03:01:57;24.60;96.40
11055;DHT22;5580;50.106;8.702;2022-08-01T03:04:25;24.60;96.50
11055;DHT22;5580;50.106;8.702;2022-08-01T03:06:55;24.60;96.80
11055;DHT22;5580;50.106;8.702;2022-08-01T03:09:25;24.60;96.90
11055;DHT22;5580;50.106;8.702;2022-08-01T03:11:52;24.60;96.70
11055;DHT22;5580;50.106;8.702;2022-08-01T03:14:20;24.50;96.70
11055;DHT22;5580;50.106;8.702;2022-08-01T03:16:47;24.50;96.70
11055;DHT22;5580;50.106;8.702;2022-08-01T03:19:14;24.50;96.80
11055;DHT22;5580;50.106;8.702;2022-08-01T03:21:41;24.50;96.80
11055;DHT22;5580;50.106;8.702;2022-08-01T03:24:10;24.50;96.90
11055;DHT22;5580;50.106;8.702;2022-08-01T03:26:38;24.50;96.90
11055;DHT22;5580;50.106;8.702;2022-08-01T03:29:06;24.50;97.30
11055;DHT22;5580;50.106;8.702;2022-08-01T03:31:36;24.50;97.40
11055;DHT22;5580;50.106;8.702;2022-08-01T03:34:04;24.40;97.30
11055;DHT22;5580;50.106;8.702;2022-08-01T03:36:32;24.40;97.40
11055;DHT22;5580;50.106;8.702;2022-08-01T03:39:01;24.40;97.50
11055;DHT22;5580;50.106;8.702;2022-08-01T03:41:31;24.50;97.60
11055;DHT22;5580;50.106;8.702;2022-08-01T03:44:02;24.50;97.40
11055;DHT22;5580;50.106;8.702;2022-08-01T03:46:48;24.50;97.50
11055;DHT22;5580;50.106;8.702;2022-08-01T03:49:18;24.50;97.60
11055;DHT22;5580;50.106;8.702;2022-08-01T03:51:47;24.40;97.70
11055;DHT22;5580;50.106;8.702;2022-08-01T03:54:17;24.40;97.80
11055;DHT22;5580;50.106;8.702;2022-08-01T03:56:47;24.40;97.70
11055;DHT22;5580;50.106;8.702;2022-08-01T03:59:15;24.40;97.70
11055;DHT22;5580;50.106;8.702;2022-08-01T04:01:41;24.30;97.70
11055;DHT22;5580;50.106;8.702;2022-08-01T04:04:08;24.30;97.80
11055;DHT22;5580;50.106;8.702;2022-08-01T04:06:37;24.30;97.80
11055;DHT22;5580;50.106;8.702;2022-08-01T04:09:03;24.20;98.00
11055;DHT22;5580;50.106;8.702;2022-08-01T04:11:29;24.10;98.00
11055;DHT22;5580;50.106;8.702;2022-08-01T04:13:55;24.20;98.10
11055;DHT22;5580;50.106;8.702;2022-08-01T04:16:22;24.20;98.20
11055;DHT22;5580;50.106;8.702;2022-08-01T04:18:48;24.20;98.20
11055;DHT22;5580;50.106;8.702;2022-08-01T04:21:14;24.20;98.30
11055;DHT22;5580;50.106;8.702;2022-08-01T04:23:43;24.20;98.40
11055;DHT22;5580;50.106;8.702;2022-08-01T04:26:10;24.10;98.30
11055;DHT22;5580;50.106;8.702;2022-08-01T04:28:38;24.10;98.40
11055;DHT22;5580;50.106;8.702;2022-08-01T04:31:07;24.10;98.60
11055;DHT22;5580;50.106;8.702;2022-08-01T04:33:38;24.10;98.80
11055;DHT22;5580;50.106;8.702;2022-08-01T04:36:06;24.10;98.80
11055;DHT22;5580;50.106;8.702;2022-08-01T04:38:35;24.10;98.80
11055;DHT22;5580;50.106;8.702;2022-08-01T04:41:06;24.10;98.80
11055;DHT22;5580;50.106;8.702;2022-08-01T04:43:32;24.10;98.80
11055;DHT22;5580;50.106;8.702;2022-08-01T04:45:59;24.10;98.80
11055;DHT22;5580;50.106;8.702;2022-08-01T04:48:26;24.10;98.90
11055;DHT22;5580;50.106;8.702;2022-08-01T04:50:51;24.10;99.20
11055;DHT22;5580;50.106;8.702;2022-08-01T04:53:18;24.10;99.20
11055;DHT22;5580;50.106;8.702;2022-08-01T04:55:45;24.10;99.30
11055;DHT22;5580;50.106;8.702;2022-08-01T04:58:14;24.10;99.40
11055;DHT22;5580;50.106;8.702;2022-08-01T05:00:40;24.10;99.30
11055;DHT22;5580;50.106;8.702;2022-08-01T05:03:06;24.10;99.30
11055;DHT22;5580;50.106;8.702;2022-08-01T05:05:32;24.00;99.30
11055;DHT22;5580;50.106;8.702;2022-08-01T05:07:58;24.00;99.40
11055;DHT22;5580;50.106;8.702;2022-08-01T05:10:24;24.00;99.70
11055;DHT22;5580;50.106;8.702;2022-08-01T05:12:51;24.00;99.70
11055;DHT22;5580;50.106;8.702;2022-08-01T05:15:17;23.90;99.80
11055;DHT22;5580;50.106;8.702;2022-08-01T05:17:42;23.90;99.90
11055;DHT22;5580;50.106;8.702;2022-08-01T05:20:08;23.90;99.90
11055;DHT22;5580;50.106;8.702;2022-08-01T05:22:34;23.90;99.90
11055;DHT22;5580;50.106;8.702;2022-08-01T05:25:00;23.90;99.90
11055;DHT22;5580;50.106;8.702;2022-08-01T05:27:26;23.90;99.90
11055;DHT22;5580;50.106;8.702;2022-08-01T05:29:52;23.90;99.90
11055;DHT22;5580;50.106;8.702;2022-08-01T05:32:18;23.90;99.90
11055;DHT22;5580;50.106;8.702;2022-08-01T05:34:43;23.90;99.90
11055;DHT22;5580;50.106;8.702;2022-08-01T05:37:09;23.90;99.90
11055;DHT22;5580;50.106;8.702;2022-08-01T05:39:35;23.90;99.90
11055;DHT22;5580;50.106;8.702;2022-08-01T05:42:00;23.80;99.90
11055;DHT22;5580;50.106;8.702;2022-08-01T05:44:26;23.80;99.90
11055;DHT22;5580;50.106;8.702;2022-08-01T05:46:52;23.90;99.90
11055;DHT22;5580;50.106;8.702;2022-08-01T05:49:17;23.80;99.90
11055;DHT22;5580;50.106;8.702;2022-08-01T05:51:43;23.80;99.90
11055;DHT22;5580;50.106;8.702;2022-08-01T05:54:09;23.90;99.90
11055;DHT22;5580;50.106;8.702;2022-08-01T05:56:34;23.90;99.90
11055;DHT22;5580;50.106;8.702;2022-08-01T05:59:00;23.90;99.90
11055;DHT22;5580;50.106;8.702;2022-08-01T06:01:25;23.90;99.90
11055;DHT22;5580;50.106;8.702;2022-08-01T06:03:51;23.90;99.90
11055;DHT22;5580;50.106;8.702;2022-08-01T06:06:20;23.90;99.90
11055;DHT22;5580;50.106;8.702;2022-08-01T06:08:45;23.90;99.90
11055;DHT22;5580;50.106;8.702;2022-08-01T06:11:11;23.90;99.90
11055;DHT22;5580;50.106;8.702;2022-08-01T06:13:36;23.90;99.90
11055;DHT22;5580;50.106;8.702;2022-08-01T06:16:02;23.90;99.90
11055;DHT22;5580;50.106;8.702;2022-08-01T06:18:28;23.80;99.90
11055;DHT22;5580;50.106;8.702;2022-08-01T06:20:53;23.90;99.90
11055;DHT22;5580;50.106;8.702;2022-08-01T06:23:20;23.90;99.90
11055;DHT22;5580;50.106;8.702;2022-08-01T06:25:47;23.90;99.90
11055;DHT22;5580;50.106;8.702;2022-08-01T06:28:12;23.90;99.90
11055;DHT22;5580;50.106;8.702;2022-08-01T06:30:38;23.90;99.90
11055;DHT22;5580;50.106;8.702;2022-08-01T06:33:04;23.90;99.90
11055;DHT22;5580;50.106;8.702;2022-08-01T06:35:30;23.90;99.90
11055;DHT22;5580;50.106;8.702;2022-08-01T06:37:56;24.00;99.90
11055;DHT22;5580;50.106;8.702;2022-08-01T06:40:22;24.00;99.90
11055;DHT22;5580;50.106;8.702;2022-08-01T06:42:48;24.00;99.90
11055;DHT22;5580;50.106;8.702;2022-08-01T06:45:14;24.10;99.90
11055;DHT22;5580;50.106;8.702;2022-08-01T06:47:42;24.10;99.90
11055;DHT22;5580;50.106;8.702;2022-08-01T06:50:08;24.10;99.90
11055;DHT22;5580;50.106;8.702;2022-08-01T06:52:35;24.20;99.90
11055;DHT22;5580;50.106;8.702;2022-08-01T06:55:01;24.20;99.90
11055;DHT22;5580;50.106;8.702;2022-08-01T06:57:27;24.30;99.90
11055;DHT22;5580;50.106;8.702;2022-08-01T06:59:53;24.30;99.90
11055;DHT22;5580;50.106;8.702;2022-08-01T07:02:18;24.30;99.90
11055;DHT22;5580;50.106;8.702;2022-08-01T07:04:44;24.30;99.90
11055;DHT22;5580;50.106;8.702;2022-08-01T07:07:09;24.30;99.90
11055;DHT22;5580;50.106;8.702;2022-08-01T07:09:35;24.30;99.90
11055;DHT22;5580;50.106;8.702;2022-08-01T07:12:02;24.40;99.90
11055;DHT22;5580;50.106;8.702;2022-08-01T07:14:28;24.40;99.90
11055;DHT22;5580;50.106;8.702;2022-08-01T07:16:54;24.40;99.90
11055;DHT22;5580;50.106;8.702;2022-08-01T07:19:19;24.40;99.90
11055;DHT22;5580;50.106;8.702;2022-08-01T07:21:45;24.40;99.90
11055;DHT22;5580;50.106;8.702;2022-08-01T07:24:13;24.50;99.90
11055;DHT22;5580;50.106;8.702;2022-08-01T07:26:44;24.50;99.90
11055;DHT22;5580;50.106;8.702;2022-08-01T07:29:09;24.60;99.90
11055;DHT22;5580;50.106;8.702;2022-08-01T07:31:35;24.60;99.90
11055;DHT22;5580;50.106;8.702;2022-08-01T07:34:01;24.50;99.90
11055;DHT22;5580;50.106;8.702;2022-08-01T07:36:26;24.50;99.90
11055;DHT22;5580;50.106;8.702;2022-08-01T07:38:52;24.50;99.90
11055;DHT22;5580;50.106;8.702;2022-08-01T07:41:18;24.50;99.90
11055;DHT22;5580;50.106;8.702;2022-08-01T07:43:43;24.50;99.90
11055;DHT22;5580;50.106;8.702;2022-08-01T07:46:09;24.50;99.90
11055;DHT22;5580;50.106;8.702;2022-08-01T07:48:34;24.50;99.90
11055;DHT22;5580;50.106;8.702;2022-08-01T07:51:00;24.50;99.90
11055;DHT22;5580;50.106;8.702;2022-08-01T07:53:26;24.60;99.90
11055;DHT22;5580;50.106;8.702;2022-08-01T07:55:51;24.60;99.90
11055;DHT22;5580;50.106;8.702;2022-08-01T07:58:17;24.60;99.90
11055;DHT22;5580;50.106;8.702;2022-08-01T08:00:43;24.70;99.90
11055;DHT22;5580;50.106;8.702;2022-08-01T08:03:09;24.80;99.90
11055;DHT22;5580;50.106;8.702;2022-08-01T08:05:35;24.80;99.90
11055;DHT22;5580;50.106;8.702;2022-08-01T08:08:08;24.80;99.90
11055;DHT22;5580;50.106;8.702;2022-08-01T08:10:34;24.90;99.90
11055;DHT22;5580;50.106;8.702;2022-08-01T08:13:00;25.00;99.90
11055;DHT22;5580;50.106;8.702;2022-08-01T08:15:27;25.10;99.90
11055;DHT22;5580;50.106;8.702;2022-08-01T08:17:53;25.10;99.90
11055;DHT22;5580;50.106;8.702;2022-08-01T08:20:19;25.20;99.90
11055;DHT22;5580;50.106;8.702;2022-08-01T08:22:46;25.20;99.90
11055;DHT22;5580;50.106;8.702;2022-08-01T08:25:12;25.20;99.90
11055;DHT22;5580;50.106;8.702;2022-08-01T08:27:37;25.10;99.90
11055;DHT22;5580;50.106;8.702;2022-08-01T08:30:04;25.10;99.90
11055;DHT22;5580;50.106;8.702;2022-08-01T08:32:36;25.10;99.90
11055;DHT22;5580;50.106;8.702;2022-08-01T08:35:02;25.10;99.90
11055;DHT22;5580;50.106;8.702;2022-08-01T08:37:28;25.10;99.90
11055;DHT22;5580;50.106;8.702;2022-08-01T08:39:53;25.10;99.90
11055;DHT22;5580;50.106;8.702;2022-08-01T08:42:19;25.10;99.90
11055;DHT22;5580;50.106;8.702;2022-08-01T08:44:45;25.10;99.90
11055;DHT22;5580;50.106;8.702;2022-08-01T08:47:12;25.00;99.90
11055;DHT22;5580;50.106;8.702;2022-08-01T08:49:39;25.10;99.90
11055;DHT22;5580;50.106;8.702;2022-08-01T08:52:07;25.10;99.90
11055;DHT22;5580;50.106;8.702;2022-08-01T08:54:35;25.10;99.90
11055;DHT22;5580;50.106;8.702;2022-08-01T08:57:01;25.10;99.90
11055;DHT22;5580;50.106;8.702;2022-08-01T08:59:27;25.10;99.90
11055;DHT22;5580;50.106;8.702;2022-08-01T09:01:53;25.10;99.90
11055;DHT22;5580;50.106;8.702;2022-08-01T09:04:21;25.10;99.90
11055;DHT22;5580;50.106;8.702;2022-08-01T09:06:48;25.10;99.90
11055;DHT22;5580;50.106;8.702;2022-08-01T09:09:13;25.10;99.90
11055;DHT22;5580;50.106;8.702;2022-08-01T09:11:39;25.10;99.90
11055;DHT22;5580;50.106;8.702;2022-08-01T09:14:13;25.20;99.90
11055;DHT22;5580;50.106;8.702;2022-08-01T09:16:42;25.20;99.90
11055;DHT22;5580;50.106;8.702;2022-08-01T09:19:17;25.30;99.90
11055;DHT22;5580;50.106;8.702;2022-08-01T09:22:04;25.30;99.90
11055;DHT22;5580;50.106;8.702;2022-08-01T09:24:31;25.30;99.90
11055;DHT22;5580;50.106;8.702;2022-08-01T09:26:58;25.30;99.90
11055;DHT22;5580;50.106;8.702;2022-08-01T09:29:30;25.30;99.90
11055;DHT22;5580;50.106;8.702;2022-08-01T09:32:05;25.30;99.90
11055;DHT22;5580;50.106;8.702;2022-08-01T09:34:31;25.30;99.90
11055;DHT22;5580;50.106;8.702;2022-08-01T09:37:00;25.30;99.90
11055;DHT22;5580;50.106;8.702;2022-08-01T09:41:53;25.30;99.90
11055;DHT22;5580;50.106;8.702;2022-08-01T09:44:19;25.30;99.90
11055;DHT22;5580;50.106;8.702;2022-08-01T09:46:57;25.40;99.90
11055;DHT22;5580;50.106;8.702;2022-08-01T09:49:33;25.50;99.90
11055;DHT22;5580;50.106;8.702;2022-08-01T09:52:16;25.60;99.90
11055;DHT22;5580;50.106;8.702;2022-08-01T09:54:43;25.70;99.90
11055;DHT22;5580;50.106;8.702;2022-08-01T09:57:15;25.70;99.90
11055;DHT22;5580;50.106;8.702;2022-08-01T09:59:43;25.80;99.90
11055;DHT22;5580;50.106;8.702;2022-08-01T10:02:25;25.90;99.90
11055;DHT22;5580;50.106;8.702;2022-08-01T10:04:51;25.90;99.60
11055;DHT22;5580;50.106;8.702;2022-08-01T10:07:18;26.00;99.80
11055;DHT22;5580;50.106;8.702;2022-08-01T10:09:45;26.00;99.20
11055;DHT22;5580;50.106;8.702;2022-08-01T10:12:17;26.00;98.90
11055;DHT22;5580;50.106;8.702;2022-08-01T10:14:47;26.00;98.80
11055;DHT22;5580;50.106;8.702;2022-08-01T10:17:18;26.00;98.80
11055;DHT22;5580;50.106;8.702;2022-08-01T10:19:44;26.00;98.50
11055;DHT22;5580;50.106;8.702;2022-08-01T10:22:12;26.00;98.50
11055;DHT22;5580;50.106;8.702;2022-08-01T10:24:47;26.00;98.50
11055;DHT22;5580;50.106;8.702;2022-08-01T10:27:15;26.00;98.30
11055;DHT22;5580;50.106;8.702;2022-08-01T10:32:08;26.10;98.10
11055;DHT22;5580;50.106;8.702;2022-08-01T10:34:35;26.10;98.60
11055;DHT22;5580;50.106;8.702;2022-08-01T10:37:03;26.20;98.30
11055;DHT22;5580;50.106;8.702;2022-08-01T10:39:30;26.30;98.30
11055;DHT22;5580;50.106;8.702;2022-08-01T10:41:56;26.40;98.10
11055;DHT22;5580;50.106;8.702;2022-08-01T10:44:25;26.40;98.20
11055;DHT22;5580;50.106;8.702;2022-08-01T10:46:57;26.40;97.90
11055;DHT22;5580;50.106;8.702;2022-08-01T10:49:27;26.50;97.50
11055;DHT22;5580;50.106;8.702;2022-08-01T10:51:54;26.50;97.60
11055;DHT22;5580;50.106;8.702;2022-08-01T10:54:25;26.50;96.90
11055;DHT22;5580;50.106;8.702;2022-08-01T10:56:52;26.60;96.90
11055;DHT22;5580;50.106;8.702;2022-08-01T10:59:21;26.60;96.70
11055;DHT22;5580;50.106;8.702;2022-08-01T11:02:04;26.60;96.60
11055;DHT22;5580;50.106;8.702;2022-08-01T11:07:19;26.80;96.40
11055;DHT22;5580;50.106;8.702;2022-08-01T11:09:47;26.80;95.90
11055;DHT22;5580;50.106;8.702;2022-08-01T11:12:15;26.80;95.70
11055;DHT22;5580;50.106;8.702;2022-08-01T11:17:37;26.90;95.30
11055;DHT22;5580;50.106;8.702;2022-08-01T11:20:16;26.80;95.20
11055;DHT22;5580;50.106;8.702;2022-08-01T11:30:49;26.70;94.70
11055;DHT22;5580;50.106;8.702;2022-08-01T11:33:17;26.70;94.60
11055;DHT22;5580;50.106;8.702;2022-08-01T11:38:45;26.70;94.60
11055;DHT22;5580;50.106;8.702;2022-08-01T11:41:12;26.70;94.70
11055;DHT22;5580;50.106;8.702;2022-08-01T11:46:48;26.80;94.80
11055;DHT22;5580;50.106;8.702;2022-08-01T11:57:26;26.90;94.80
11055;DHT22;5580;50.106;8.702;2022-08-01T11:59:57;26.90;94.50
11055;DHT22;5580;50.106;8.702;2022-08-01T12:02:27;26.90;94.40
11055;DHT22;5580;50.106;8.702;2022-08-01T12:07:22;26.90;94.00
11055;DHT22;5580;50.106;8.702;2022-08-01T12:09:48;26.90;94.00
11055;DHT22;5580;50.106;8.702;2022-08-01T12:12:21;27.00;93.80
11055;DHT22;5580;50.106;8.702;2022-08-01T12:14:53;27.00;93.00
11055;DHT22;5580;50.106;8.702;2022-08-01T12:17:27;27.10;92.90
11055;DHT22;5580;50.106;8.702;2022-08-01T12:19:53;27.10;93.00
11055;DHT22;5580;50.106;8.702;2022-08-01T12:22:22;27.10;93.20
11055;DHT22;5580;50.106;8.702;2022-08-01T12:24:47;27.10;93.20
11055;DHT22;5580;50.106;8.702;2022-08-01T12:27:29;27.10;92.70
11055;DHT22;5580;50.106;8.702;2022-08-01T12:29:57;27.20;92.60
11055;DHT22;5580;50.106;8.702;2022-08-01T12:32:34;27.20;92.20
11055;DHT22;5580;50.106;8.702;2022-08-01T12:35:07;27.20;92.40
11055;DHT22;5580;50.106;8.702;2022-08-01T12:37:47;27.30;92.40
11055;DHT22;5580;50.106;8.702;2022-08-01T12:40:15;27.30;91.90
11055;DHT22;5580;50.106;8.702;2022-08-01T12:42:42;27.20;91.50
11055;DHT22;5580;50.106;8.702;2022-08-01T12:45:09;27.30;91.70
11055;DHT22;5580;50.106;8.702;2022-08-01T12:47:36;27.30;91.60
11055;DHT22;5580;50.106;8.702;2022-08-01T12:50:16;27.30;91.00
11055;DHT22;5580;50.106;8.702;2022-08-01T12:52:43;27.30;91.40
11055;DHT22;5580;50.106;8.702;2022-08-01T12:57:44;27.30;91.20
11055;DHT22;5580;50.106;8.702;2022-08-01T13:00:13;27.30;91.20
11055;DHT22;5580;50.106;8.702;2022-08-01T13:02:40;27.30;91.50
11055;DHT22;5580;50.106;8.702;2022-08-01T13:05:06;27.30;91.30
11055;DHT22;5580;50.106;8.702;2022-08-01T13:07:39;27.30;91.00
11055;DHT22;5580;50.106;8.702;2022-08-01T13:10:05;27.30;91.20
11055;DHT22;5580;50.106;8.702;2022-08-01T13:12:31;27.30;91.00
11055;DHT22;5580;50.106;8.702;2022-08-01T13:14:57;27.30;90.90
11055;DHT22;5580;50.106;8.702;2022-08-01T13:17:33;27.40;91.20
11055;DHT22;5580;50.106;8.702;2022-08-01T13:20:01;27.40;91.30
11055;DHT22;5580;50.106;8.702;2022-08-01T13:22:34;27.40;91.10
11055;DHT22;5580;50.106;8.702;2022-08-01T13:25:14;27.40;90.70
11055;DHT22;5580;50.106;8.702;2022-08-01T13:27:40;27.40;90.80
11055;DHT22;5580;50.106;8.702;2022-08-01T13:30:19;27.40;90.80
11055;DHT22;5580;50.106;8.702;2022-08-01T13:33:00;27.50;91.10
11055;DHT22;5580;50.106;8.702;2022-08-01T13:35:27;27.50;91.00
11055;DHT22;5580;50.106;8.702;2022-08-01T13:37:52;27.40;90.60
11055;DHT22;5580;50.106;8.702;2022-08-01T13:40:26;27.40;91.00
11055;DHT22;5580;50.106;8.702;2022-08-01T13:42:53;27.40;90.90
11055;DHT22;5580;50.106;8.702;2022-08-01T13:45:20;27.40;90.90
11055;DHT22;5580;50.106;8.702;2022-08-01T13:47:46;27.50;90.80
11055;DHT22;5580;50.106;8.702;2022-08-01T13:50:12;27.50;90.80
11055;DHT22;5580;50.106;8.702;2022-08-01T13:52:37;27.50;90.70
11055;DHT22;5580;50.106;8.702;2022-08-01T13:55:03;27.50;90.80
11055;DHT22;5580;50.106;8.702;2022-08-01T13:57:29;27.50;90.70
11055;DHT22;5580;50.106;8.702;2022-08-01T13:59:55;27.50;90.60
11055;DHT22;5580;50.106;8.702;2022-08-01T14:02:23;27.50;90.50
11055;DHT22;5580;50.106;8.702;2022-08-01T14:04:48;27.50;90.50
11055;DHT22;5580;50.106;8.702;2022-08-01T14:07:14;27.40;90.40
11055;DHT22;5580;50.106;8.702;2022-08-01T14:09:40;27.50;90.70
11055;DHT22;5580;50.106;8.702;2022-08-01T14:12:05;27.50;90.80
11055;DHT22;5580;50.106;8.702;2022-08-01T14:14:31;27.50;90.90
11055;DHT22;5580;50.106;8.702;2022-08-01T14:16:57;27.50;91.00
11055;DHT22;5580;50.106;8.702;2022-08-01T14:19:22;27.50;91.20
11055;DHT22;5580;50.106;8.702;2022-08-01T14:21:48;27.40;91.10
11055;DHT22;5580;50.106;8.702;2022-08-01T14:24:14;27.40;91.00
11055;DHT22;5580;50.106;8.702;2022-08-01T14:26:39;27.40;91.10
11055;DHT22;5580;50.106;8.702;2022-08-01T14:29:05;27.40;91.10
11055;DHT22;5580;50.106;8.702;2022-08-01T14:31:30;27.40;91.40
11055;DHT22;5580;50.106;8.702;2022-08-01T14:33:56;27.40;91.20
11055;DHT22;5580;50.106;8.702;2022-08-01T14:36:21;27.40;91.40
11055;DHT22;5580;50.106;8.702;2022-08-01T14:38:47;27.30;91.50
11055;DHT22;5580;50.106;8.702;2022-08-01T14:41:14;27.30;91.70
11055;DHT22;5580;50.106;8.702;2022-08-01T14:43:40;27.30;91.70
11055;DHT22;5580;50.106;8.702;2022-08-01T14:46:06;27.30;91.80
11055;DHT22;5580;50.106;8.702;2022-08-01T14:48:33;27.30;91.70
11055;DHT22;5580;50.106;8.702;2022-08-01T14:50:59;27.30;91.60
11055;DHT22;5580;50.106;8.702;2022-08-01T14:53:28;27.30;91.60
11055;DHT22;5580;50.106;8.702;2022-08-01T14:55:57;27.30;91.50
11055;DHT22;5580;50.106;8.702;2022-08-01T14:58:23;27.40;91.50
11055;DHT22;5580;50.106;8.702;2022-08-01T15:00:48;27.40;91.40
11055;DHT22;5580;50.106;8.702;2022-08-01T15:03:14;27.40;91.50
11055;DHT22;5580;50.106;8.702;2022-08-01T15:05:40;27.40;91.30
11055;DHT22;5580;50.106;8.702;2022-08-01T15:08:08;27.40;91.50
11055;DHT22;5580;50.106;8.702;2022-08-01T15:10:34;27.40;91.20
11055;DHT22;5580;50.106;8.702;2022-08-01T15:13:00;27.40;91.00
11055;DHT22;5580;50.106;8.702;2022-08-01T15:15:27;27.40;90.90
11055;DHT22;5580;50.106;8.702;2022-08-01T15:17:53;27.40;90.30
11055;DHT22;5580;50.106;8.702;2022-08-01T15:20:19;27.40;90.30
11055;DHT22;5580;50.106;8.702;2022-08-01T15:22:45;27.40;90.30
11055;DHT22;5580;50.106;8.702;2022-08-01T15:25:10;27.40;90.30
11055;DHT22;5580;50.106;8.702;2022-08-01T15:27:36;27.40;90.50
11055;DHT22;5580;50.106;8.702;2022-08-01T15:30:02;27.40;90.90
11055;DHT22;5580;50.106;8.702;2022-08-01T15:32:28;27.40;90.90
11055;DHT22;5580;50.106;8.702;2022-08-01T15:34:54;27.40;90.90
11055;DHT22;5580;50.106;8.702;2022-08-01T15:37:20;27.50;90.90
11055;DHT22;5580;50.106;8.702;2022-08-01T15:39:46;27.40;91.00
11055;DHT22;5580;50.106;8.702;2022-08-01T15:42:13;27.40;91.20
11055;DHT22;5580;50.106;8.702;2022-08-01T15:44:39;27.40;91.30
11055;DHT22;5580;50.106;8.702;2022-08-01T15:47:05;27.40;91.50
11055;DHT22;5580;50.106;8.702;2022-08-01T15:49:31;27.50;91.30
11055;DHT22;5580;50.106;8.702;2022-08-01T15:51:57;27.40;91.30
11055;DHT22;5580;50.106;8.702;2022-08-01T15:54:23;27.40;91.40
11055;DHT22;5580;50.106;8.702;2022-08-01T15:56:49;27.40;91.50
11055;DHT22;5580;50.106;8.702;2022-08-01T15:59:14;27.50;91.20
11055;DHT22;5580;50.106;8.702;2022-08-01T16:01:40;27.50;91.00
11055;DHT22;5580;50.106;8.702;2022-08-01T16:04:06;27.40;91.10
11055;DHT22;5580;50.106;8.702;2022-08-01T16:06:33;27.50;91.00
11055;DHT22;5580;50.106;8.702;2022-08-01T16:08:58;27.50;91.20
11055;DHT22;5580;50.106;8.702;2022-08-01T16:11:24;27.50;90.90
11055;DHT22;5580;50.106;8.702;2022-08-01T16:13:53;27.50;91.00
11055;DHT22;5580;50.106;8.702;2022-08-01T16:16:19;27.50;90.70
11055;DHT22;5580;50.106;8.702;2022-08-01T16:18:45;27.50;90.50
11055;DHT22;5580;50.106;8.702;2022-08-01T16:21:11;27.50;90.50
11055;DHT22;5580;50.106;8.702;2022-08-01T16:23:37;27.50;90.40
11055;DHT22;5580;50.106;8.702;2022-08-01T16:26:03;27.50;90.30
11055;DHT22;5580;50.106;8.702;2022-08-01T16:28:29;27.50;90.20
11055;DHT22;5580;50.106;8.702;2022-08-01T16:30:55;27.50;90.10
11055;DHT22;5580;50.106;8.702;2022-08-01T16:33:21;27.50;90.50
11055;DHT22;5580;50.106;8.702;2022-08-01T16:35:47;27.50;90.20
11055;DHT22;5580;50.106;8.702;2022-08-01T16:38:13;27.50;90.30
11055;DHT22;5580;50.106;8.702;2022-08-01T16:40:41;27.50;90.10